createdAt,value
2019-03-31T00:00:06.557Z,9.74
2019-03-31T00:02:35.074Z,9.70
2019-03-31T00:05:04.081Z,9.72
2019-03-31T00:07:32.522Z,9.63
2019-03-31T00:10:01.001Z,9.59
2019-03-31T00:12:29.463Z,9.55
2019-03-31T00:14:57.900Z,9.55
2019-03-31T00:17:26.342Z,9.51
2019-03-31T00:19:54.818Z,9.37
2019-03-31T00:22:23.247Z,9.37
2019-03-31T00:24:53.388Z,9.33
2019-03-31T00:27:21.885Z,9.30
2019-03-31T00:29:50.363Z,9.28
2019-03-31T00:32:18.847Z,9.21
2019-03-31T00:34:47.307Z,9.21
2019-03-31T00:37:15.745Z,9.06
2019-03-31T00:39:44.185Z,8.97
2019-03-31T00:42:12.759Z,9.03
2019-03-31T00:44:41.191Z,8.90
2019-03-31T00:47:09.662Z,8.87
2019-03-31T00:49:38.149Z,8.87
2019-03-31T00:52:06.632Z,8.89
2019-03-31T00:54:35.069Z,8.87
2019-03-31T00:57:03.581Z,8.81
2019-03-31T00:59:32.034Z,8.76
2019-03-31T01:02:02.454Z,8.74
2019-03-31T01:04:33.463Z,8.77
2019-03-31T01:07:02.193Z,8.71
2019-03-31T01:09:32.985Z,8.74
2019-03-31T01:12:04.237Z,8.69
2019-03-31T01:14:33.306Z,8.62
2019-03-31T01:17:03.304Z,8.56
2019-03-31T01:19:31.809Z,8.56
2019-03-31T01:22:00.223Z,8.56
2019-03-31T01:24:28.763Z,8.54
2019-03-31T01:26:57.266Z,8.54
2019-03-31T01:29:25.914Z,8.53
2019-03-31T01:31:56.053Z,8.50
2019-03-31T01:34:25.145Z,8.48
2019-03-31T01:36:53.683Z,8.43
2019-03-31T01:39:24.380Z,8.39
2019-03-31T01:41:52.999Z,8.40
2019-03-31T01:44:21.608Z,8.34
2019-03-31T01:46:50.024Z,8.25
2019-03-31T01:49:18.469Z,8.26
2019-03-31T01:51:47.028Z,8.23
2019-03-31T01:54:15.468Z,8.23
2019-03-31T01:56:44.921Z,8.17
2019-03-31T01:59:13.610Z,7.99
2019-03-31T02:01:42.133Z,7.97
2019-03-31T02:04:10.577Z,7.95
2019-03-31T02:06:39.112Z,7.97
2019-03-31T02:09:07.631Z,7.93
2019-03-31T02:11:36.064Z,7.92
2019-03-31T02:14:04.662Z,7.88
2019-03-31T02:16:33.196Z,7.83
2019-03-31T02:19:01.651Z,7.83
2019-03-31T02:21:30.089Z,7.81
2019-03-31T02:23:58.529Z,7.78
2019-03-31T02:26:26.992Z,7.74
2019-03-31T02:28:55.515Z,7.73
2019-03-31T02:31:23.987Z,7.52
2019-03-31T02:33:52.424Z,7.45
2019-03-31T02:36:20.873Z,7.53
2019-03-31T02:38:49.325Z,7.52
2019-03-31T02:41:17.753Z,7.53
2019-03-31T02:43:46.210Z,7.48
2019-03-31T02:46:14.653Z,7.42
2019-03-31T02:48:43.125Z,7.49
2019-03-31T02:51:11.629Z,7.49
2019-03-31T02:53:40.212Z,7.48
2019-03-31T02:56:09.692Z,7.50
2019-03-31T02:58:38.211Z,7.44
2019-03-31T03:01:07.903Z,7.46
2019-03-31T03:03:39.384Z,7.41
2019-03-31T03:06:10.181Z,7.44
2019-03-31T03:08:41.338Z,7.46
2019-03-31T03:11:12.907Z,7.47
2019-03-31T03:13:43.635Z,7.48
2019-03-31T03:16:21.251Z,7.48
2019-03-31T03:18:50.413Z,7.46
2019-03-31T03:21:23.668Z,7.49
2019-03-31T03:23:49.626Z,7.50
2019-03-31T03:26:18.512Z,7.48
2019-03-31T03:28:47.355Z,7.49
2019-03-31T03:31:17.339Z,7.47
2019-03-31T03:33:46.199Z,7.52
2019-03-31T03:36:15.580Z,7.50
2019-03-31T03:38:44.181Z,7.53
2019-03-31T03:41:12.633Z,7.53
2019-03-31T03:43:55.061Z,7.60
2019-03-31T03:46:11.237Z,7.60
2019-03-31T03:48:39.706Z,7.63
2019-03-31T03:51:08.173Z,7.62
2019-03-31T03:53:36.624Z,7.65
2019-03-31T03:56:05.163Z,7.67
2019-03-31T03:58:33.676Z,7.65
2019-03-31T04:01:02.647Z,7.61
2019-03-31T04:03:31.350Z,7.58
2019-03-31T04:05:59.945Z,7.56
2019-03-31T04:08:28.421Z,7.53
2019-03-31T04:11:12.314Z,7.52
2019-03-31T04:13:40.782Z,7.48
2019-03-31T04:16:09.369Z,7.50
2019-03-31T04:18:37.887Z,7.46
2019-03-31T04:21:06.501Z,7.45
2019-03-31T04:23:34.960Z,7.37
2019-03-31T04:26:03.433Z,7.21
2019-03-31T04:28:31.888Z,7.21
2019-03-31T04:31:00.346Z,7.23
2019-03-31T04:33:48.417Z,7.18
2019-03-31T04:35:59.002Z,7.18
2019-03-31T04:38:27.446Z,7.06
2019-03-31T04:40:55.983Z,7.07
2019-03-31T04:43:24.435Z,7.02
2019-03-31T04:45:55.296Z,6.85
2019-03-31T04:48:23.742Z,6.84
2019-03-31T04:50:52.387Z,6.69
2019-03-31T04:53:20.984Z,6.61
2019-03-31T04:55:49.426Z,6.56
2019-03-31T04:58:17.882Z,6.61
2019-03-31T05:00:46.334Z,6.58
2019-03-31T05:03:14.796Z,6.53
2019-03-31T05:05:43.271Z,6.39
2019-03-31T05:08:11.727Z,6.43
2019-03-31T05:10:40.179Z,6.39
2019-03-31T05:13:08.639Z,6.26
2019-03-31T05:15:37.094Z,6.20
2019-03-31T05:18:05.566Z,6.17
2019-03-31T05:20:34.020Z,6.21
2019-03-31T05:23:02.553Z,6.19
2019-03-31T05:25:31.893Z,6.18
2019-03-31T05:28:00.365Z,6.26
2019-03-31T05:30:28.810Z,6.28
2019-03-31T05:32:57.255Z,6.24
2019-03-31T05:35:27.158Z,6.31
2019-03-31T05:37:55.868Z,6.36
2019-03-31T05:40:24.315Z,6.22
2019-03-31T05:42:52.823Z,6.28
2019-03-31T05:45:21.247Z,6.23
2019-03-31T05:47:49.725Z,6.33
2019-03-31T05:50:18.193Z,6.31
2019-03-31T05:52:46.616Z,6.36
2019-03-31T05:55:15.093Z,6.44
2019-03-31T05:57:43.592Z,6.33
2019-03-31T06:00:12.138Z,6.46
2019-03-31T06:02:40.591Z,6.48
2019-03-31T06:05:09.032Z,6.54
2019-03-31T06:07:37.598Z,6.61
2019-03-31T06:10:07.515Z,6.69
2019-03-31T06:12:35.988Z,6.75
2019-03-31T06:15:05.378Z,6.76
2019-03-31T06:17:33.855Z,6.80
2019-03-31T06:20:02.355Z,6.83
2019-03-31T06:22:30.837Z,6.81
2019-03-31T06:24:59.276Z,6.73
2019-03-31T06:27:27.745Z,6.72
2019-03-31T06:29:56.215Z,6.88
2019-03-31T06:32:24.853Z,6.94
2019-03-31T06:34:53.305Z,6.96
2019-03-31T06:37:21.765Z,6.87
2019-03-31T06:39:50.200Z,6.84
2019-03-31T06:42:18.749Z,6.87
2019-03-31T06:44:47.176Z,6.90
2019-03-31T06:47:15.621Z,6.92
2019-03-31T06:49:44.092Z,7.04
2019-03-31T06:52:12.544Z,6.99
2019-03-31T06:54:40.984Z,7.09
2019-03-31T06:57:09.448Z,7.18
2019-03-31T06:59:37.878Z,7.29
2019-03-31T07:02:06.328Z,7.37
2019-03-31T07:04:34.795Z,7.35
2019-03-31T07:07:03.334Z,7.50
2019-03-31T07:09:31.817Z,7.53
2019-03-31T07:12:00.463Z,7.68
2019-03-31T07:14:29.385Z,7.69
2019-03-31T07:16:57.930Z,7.74
2019-03-31T07:19:29.123Z,7.78
2019-03-31T07:21:58.048Z,7.69
2019-03-31T07:24:26.811Z,7.83
2019-03-31T07:26:55.398Z,7.73
2019-03-31T07:29:23.889Z,7.92
2019-03-31T07:31:52.600Z,8.01
2019-03-31T07:34:21.332Z,8.04
2019-03-31T07:36:49.948Z,8.01
2019-03-31T07:39:18.954Z,8.02
2019-03-31T07:41:49.650Z,8.08
2019-03-31T07:44:18.361Z,8.05
2019-03-31T07:46:47.659Z,8.21
2019-03-31T07:49:16.100Z,8.27
2019-03-31T07:51:46.116Z,8.39
2019-03-31T07:54:14.597Z,8.46
2019-03-31T07:56:43.094Z,8.54
2019-03-31T07:59:11.555Z,8.64
2019-03-31T08:01:39.976Z,8.50
2019-03-31T08:04:08.412Z,8.78
2019-03-31T08:06:36.865Z,8.97
2019-03-31T08:09:07.164Z,9.22
2019-03-31T08:11:35.976Z,9.41
2019-03-31T08:14:04.391Z,9.21
2019-03-31T08:16:32.860Z,9.36
2019-03-31T08:19:02.943Z,9.18
2019-03-31T08:21:31.371Z,9.16
2019-03-31T08:24:00.096Z,9.25
2019-03-31T08:26:28.660Z,9.30
2019-03-31T08:28:58.651Z,9.31
2019-03-31T08:31:27.261Z,9.16
2019-03-31T08:33:56.076Z,9.24
2019-03-31T08:36:24.585Z,9.21
2019-03-31T08:38:54.057Z,8.74
2019-03-31T08:41:25.201Z,8.80
2019-03-31T08:43:53.681Z,8.80
2019-03-31T08:46:22.295Z,8.59
2019-03-31T08:48:50.728Z,8.65
2019-03-31T08:51:19.434Z,8.78
2019-03-31T08:53:47.997Z,8.80
2019-03-31T08:56:16.500Z,8.86
2019-03-31T08:58:44.976Z,8.78
2019-03-31T09:01:15.044Z,8.90
2019-03-31T09:03:43.499Z,9.04
2019-03-31T09:06:11.921Z,8.98
2019-03-31T09:08:40.428Z,8.87
2019-03-31T09:11:08.895Z,8.96
2019-03-31T09:13:37.339Z,8.99
2019-03-31T09:16:05.888Z,9.20
2019-03-31T09:18:34.352Z,9.21
2019-03-31T09:21:02.782Z,9.16
2019-03-31T09:23:31.255Z,9.32
2019-03-31T09:25:59.674Z,9.26
2019-03-31T09:28:28.407Z,9.43
2019-03-31T09:30:56.867Z,9.58
2019-03-31T09:33:25.297Z,9.28
2019-03-31T09:35:53.742Z,9.23
2019-03-31T09:38:22.230Z,9.24
2019-03-31T09:40:50.688Z,9.33
2019-03-31T09:43:19.173Z,9.37
2019-03-31T09:45:47.586Z,9.38
2019-03-31T09:48:16.011Z,9.54
2019-03-31T09:50:44.532Z,9.50
2019-03-31T09:53:12.943Z,9.41
2019-03-31T09:55:41.478Z,9.42
2019-03-31T09:58:09.916Z,9.54
2019-03-31T10:00:50.138Z,9.54
2019-03-31T10:03:18.911Z,9.48
2019-03-31T10:05:48.147Z,9.39
2019-03-31T10:08:17.464Z,9.38
2019-03-31T10:10:46.019Z,9.25
2019-03-31T10:13:14.507Z,9.39
2019-03-31T10:15:42.941Z,9.12
2019-03-31T10:18:11.403Z,9.21
2019-03-31T10:20:39.841Z,9.14
2019-03-31T10:23:08.368Z,9.15
2019-03-31T10:25:36.785Z,9.24
2019-03-31T10:28:05.387Z,9.24
2019-03-31T10:30:38.562Z,9.35
2019-03-31T10:33:08.214Z,9.51
2019-03-31T10:35:37.584Z,9.65
2019-03-31T10:38:06.681Z,9.49
2019-03-31T10:40:35.121Z,9.67
2019-03-31T10:43:03.642Z,9.69
2019-03-31T10:45:32.147Z,9.90
2019-03-31T10:48:00.591Z,10.15
2019-03-31T10:50:29.113Z,10.31
2019-03-31T10:52:57.627Z,10.32
2019-03-31T10:55:26.212Z,10.54
2019-03-31T10:57:54.622Z,10.57
2019-03-31T11:00:37.518Z,10.54
2019-03-31T11:03:07.525Z,10.75
2019-03-31T11:05:36.184Z,10.59
2019-03-31T11:08:05.153Z,10.61
2019-03-31T11:10:33.881Z,9.93
2019-03-31T11:13:02.389Z,10.19
2019-03-31T11:15:30.930Z,10.02
2019-03-31T11:17:59.457Z,9.89
2019-03-31T11:20:27.874Z,10.24
2019-03-31T11:23:03.974Z,10.40
2019-03-31T11:25:32.468Z,10.38
2019-03-31T11:28:00.906Z,10.47
2019-03-31T11:30:29.381Z,10.48
2019-03-31T11:32:57.794Z,10.85
2019-03-31T11:35:26.250Z,11.33
2019-03-31T11:37:54.780Z,11.12
2019-03-31T11:40:23.283Z,11.42
2019-03-31T11:42:51.745Z,11.59
2019-03-31T11:45:20.281Z,11.84
2019-03-31T11:47:48.703Z,11.69
2019-03-31T11:50:17.798Z,11.59
2019-03-31T11:52:46.252Z,11.49
2019-03-31T11:55:14.759Z,11.18
2019-03-31T11:57:43.469Z,11.51
2019-03-31T12:00:17.153Z,11.86
2019-03-31T12:02:45.591Z,11.71
2019-03-31T12:05:15.200Z,11.32
2019-03-31T12:07:47.007Z,11.50
2019-03-31T12:10:13.943Z,11.45
2019-03-31T12:12:42.437Z,11.52
2019-03-31T12:15:11.440Z,11.50
2019-03-31T12:17:39.883Z,11.62
2019-03-31T12:20:11.263Z,11.56
2019-03-31T12:22:39.738Z,11.50
2019-03-31T12:25:09.225Z,11.59
2019-03-31T12:27:37.687Z,11.73
2019-03-31T12:30:10.330Z,11.89
2019-03-31T12:32:39.029Z,11.93
2019-03-31T12:35:09.029Z,12.06
2019-03-31T12:37:42.682Z,12.12
2019-03-31T12:40:10.392Z,11.82
2019-03-31T12:42:38.834Z,11.87
2019-03-31T12:45:08.039Z,12.12
2019-03-31T12:47:36.518Z,11.96
2019-03-31T12:50:06.823Z,12.09
2019-03-31T12:52:46.199Z,11.99
2019-03-31T12:55:06.401Z,11.76
2019-03-31T12:57:36.381Z,11.94
2019-03-31T13:00:07.355Z,11.89
2019-03-31T13:02:35.798Z,11.88
2019-03-31T13:05:07.769Z,12.13
2019-03-31T13:07:36.213Z,11.91
2019-03-31T13:10:06.217Z,11.91
2019-03-31T13:12:35.078Z,11.90
2019-03-31T13:15:05.611Z,12.04
2019-03-31T13:17:34.083Z,12.17
2019-03-31T13:20:02.529Z,12.14
2019-03-31T13:22:30.999Z,12.44
2019-03-31T13:25:02.332Z,12.53
2019-03-31T13:27:29.662Z,12.56
2019-03-31T13:29:58.094Z,12.75
2019-03-31T13:32:26.568Z,12.88
2019-03-31T13:34:55.152Z,12.58
2019-03-31T13:37:23.719Z,12.72
2019-03-31T13:39:52.228Z,12.60
2019-03-31T13:42:20.644Z,12.37
2019-03-31T13:44:49.201Z,12.16
2019-03-31T13:47:17.657Z,12.02
2019-03-31T13:49:46.060Z,11.99
2019-03-31T13:52:14.602Z,12.17
2019-03-31T13:54:43.091Z,11.99
2019-03-31T13:57:13.762Z,11.97
2019-03-31T13:59:42.734Z,12.08
2019-03-31T14:02:11.228Z,12.01
2019-03-31T14:04:51.022Z,12.07
2019-03-31T14:07:10.219Z,11.96
2019-03-31T14:09:38.644Z,11.97
2019-03-31T14:12:07.151Z,12.05
2019-03-31T14:14:35.581Z,12.10
2019-03-31T14:17:04.054Z,12.07
2019-03-31T14:19:32.632Z,11.97
2019-03-31T14:22:01.086Z,12.15
2019-03-31T14:24:29.519Z,12.21
2019-03-31T14:26:57.970Z,12.08
2019-03-31T14:29:26.417Z,11.96
2019-03-31T14:31:54.835Z,11.93
2019-03-31T14:34:23.303Z,11.92
2019-03-31T14:36:51.799Z,11.91
2019-03-31T14:39:20.231Z,11.84
2019-03-31T14:41:48.671Z,11.85
2019-03-31T14:44:17.118Z,11.85
2019-03-31T14:46:45.630Z,11.94
2019-03-31T14:49:14.350Z,11.99
2019-03-31T14:51:42.829Z,12.01
2019-03-31T14:54:11.318Z,12.16
2019-03-31T14:56:39.758Z,12.21
2019-03-31T14:59:08.228Z,12.34
2019-03-31T15:01:36.689Z,12.10
2019-03-31T15:04:05.336Z,12.19
2019-03-31T15:06:33.806Z,12.23
2019-03-31T15:09:02.229Z,12.16
2019-03-31T15:11:31.434Z,12.15
2019-03-31T15:14:00.199Z,11.74
2019-03-31T15:16:30.671Z,11.95
2019-03-31T15:18:59.264Z,12.03
2019-03-31T15:21:27.873Z,12.15
2019-03-31T15:23:56.468Z,11.95
2019-03-31T15:26:24.951Z,11.94
2019-03-31T15:28:54.091Z,11.98
2019-03-31T15:31:22.892Z,11.93
2019-03-31T15:33:51.851Z,11.92
2019-03-31T15:36:20.431Z,11.78
2019-03-31T15:38:49.305Z,11.70
2019-03-31T15:41:21.355Z,11.56
2019-03-31T15:43:48.471Z,11.52
2019-03-31T15:46:19.094Z,11.45
2019-03-31T15:48:48.723Z,11.39
2019-03-31T15:51:18.878Z,11.31
2019-03-31T15:53:47.625Z,11.33
2019-03-31T15:56:16.247Z,11.36
2019-03-31T15:58:44.744Z,11.25
2019-03-31T16:01:16.891Z,11.28
2019-03-31T16:03:45.587Z,11.32
2019-03-31T16:06:14.198Z,11.21
2019-03-31T16:08:42.703Z,11.24
2019-03-31T16:11:11.382Z,11.18
2019-03-31T16:13:40.037Z,11.14
2019-03-31T16:16:08.517Z,11.13
2019-03-31T16:18:37.036Z,11.18
2019-03-31T16:21:05.474Z,11.10
2019-03-31T16:23:33.896Z,11.08
2019-03-31T16:26:02.339Z,11.14
2019-03-31T16:28:30.801Z,11.17
2019-03-31T16:30:59.628Z,11.17
2019-03-31T16:33:28.132Z,11.12
2019-03-31T16:35:56.806Z,11.09
2019-03-31T16:38:25.847Z,11.05
2019-03-31T16:40:55.688Z,11.09
2019-03-31T16:43:24.168Z,11.07
2019-03-31T16:45:52.851Z,11.07
2019-03-31T16:48:21.320Z,11.03
2019-03-31T16:50:49.929Z,11.02
2019-03-31T16:53:18.508Z,10.99
2019-03-31T16:55:47.023Z,10.94
2019-03-31T16:58:15.805Z,10.90
2019-03-31T17:00:44.897Z,10.88
2019-03-31T17:03:13.525Z,10.77
2019-03-31T17:05:42.140Z,10.73
2019-03-31T17:08:10.925Z,10.72
2019-03-31T17:10:39.463Z,10.66
2019-03-31T17:13:08.045Z,10.61
2019-03-31T17:15:36.587Z,10.58
2019-03-31T17:18:05.143Z,10.54
2019-03-31T17:20:33.651Z,10.47
2019-03-31T17:23:02.780Z,10.44
2019-03-31T17:25:31.545Z,10.40
2019-03-31T17:28:00.297Z,10.39
2019-03-31T17:30:28.726Z,10.39
2019-03-31T17:32:57.241Z,10.38
2019-03-31T17:35:25.693Z,10.33
2019-03-31T17:37:54.117Z,10.24
2019-03-31T17:40:22.743Z,10.20
2019-03-31T17:42:51.556Z,10.16
2019-03-31T17:45:20.091Z,10.13
2019-03-31T17:47:48.722Z,10.05
2019-03-31T17:50:17.242Z,10.00
2019-03-31T17:52:46.235Z,9.94
2019-03-31T17:55:15.426Z,9.91
2019-03-31T17:57:43.931Z,9.89
2019-03-31T18:00:13.314Z,9.81
2019-03-31T18:02:41.900Z,9.76
2019-03-31T18:05:10.691Z,9.72
2019-03-31T18:07:39.159Z,9.67
2019-03-31T18:10:19.914Z,9.64
2019-03-31T18:12:39.092Z,9.57
2019-03-31T18:15:08.453Z,9.48
2019-03-31T18:17:36.904Z,9.41
2019-03-31T18:20:07.085Z,9.37
2019-03-31T18:22:35.742Z,9.34
2019-03-31T18:25:07.112Z,9.34
2019-03-31T18:27:35.666Z,9.26
2019-03-31T18:30:05.457Z,9.16
2019-03-31T18:32:34.305Z,9.10
2019-03-31T18:35:02.747Z,9.08
2019-03-31T18:37:31.360Z,9.03
2019-03-31T18:40:00.077Z,9.01
2019-03-31T18:42:29.497Z,8.95
2019-03-31T18:44:57.943Z,8.91
2019-03-31T18:47:26.722Z,8.83
2019-03-31T18:49:55.731Z,8.80
2019-03-31T18:52:24.243Z,8.74
2019-03-31T18:55:00.727Z,8.74
2019-03-31T19:00:16.893Z,8.65
2019-03-31T19:02:56.086Z,8.58
2019-03-31T19:05:26.418Z,8.54
2019-03-31T19:08:12.854Z,8.48
2019-03-31T19:10:49.797Z,8.46
2019-03-31T19:13:24.551Z,8.45
2019-03-31T19:15:57.765Z,8.38
2019-03-31T19:18:44.003Z,8.36
2019-03-31T19:21:14.354Z,8.32
2019-03-31T19:23:56.512Z,8.22
2019-03-31T19:26:48.063Z,8.12
2019-03-31T19:29:17.324Z,8.03
2019-03-31T19:31:50.484Z,8.00
2019-03-31T19:34:26.649Z,8.03
2019-03-31T19:37:05.596Z,7.86
2019-03-31T19:39:45.338Z,7.74
2019-03-31T19:42:31.761Z,7.70
2019-03-31T19:45:02.108Z,7.64
2019-03-31T19:47:41.826Z,7.56
2019-03-31T19:50:18.592Z,7.47
2019-03-31T19:52:55.223Z,7.54
2019-03-31T19:55:40.572Z,7.38
2019-03-31T19:58:20.078Z,7.34
2019-03-31T20:00:50.297Z,7.23
2019-03-31T20:03:35.896Z,7.12
2019-03-31T20:06:06.773Z,7.12
2019-03-31T20:08:36.911Z,7.07
2019-03-31T20:11:23.430Z,6.92
2019-03-31T20:14:02.866Z,6.83
2019-03-31T20:16:33.280Z,6.73
2019-03-31T20:19:19.923Z,6.72
2019-03-31T20:22:08.031Z,6.61
2019-03-31T20:24:44.111Z,6.50
2019-03-31T20:27:19.883Z,6.47
2019-03-31T20:29:55.854Z,6.38
2019-03-31T20:32:35.137Z,6.31
2019-03-31T20:35:20.646Z,6.25
2019-03-31T20:37:57.130Z,6.16
2019-03-31T20:40:29.984Z,6.12
2019-03-31T20:43:00.190Z,6.04
2019-03-31T20:45:28.630Z,5.96
2019-03-31T20:47:57.067Z,5.96
2019-03-31T20:50:25.953Z,5.92
2019-03-31T20:52:54.850Z,5.89
2019-03-31T20:55:23.267Z,5.86
2019-03-31T20:57:51.877Z,5.95
2019-03-31T21:00:20.479Z,5.85
2019-03-31T21:02:50.357Z,5.82
2019-03-31T21:05:18.894Z,5.77
2019-03-31T21:07:47.891Z,5.72
2019-03-31T21:10:16.323Z,5.71
2019-03-31T21:12:44.785Z,5.70
2019-03-31T21:15:13.986Z,5.67
2019-03-31T21:17:42.716Z,5.64
2019-03-31T21:20:11.506Z,5.68
2019-03-31T21:22:40.049Z,5.64
2019-03-31T21:25:08.819Z,5.55
2019-03-31T21:27:37.619Z,5.52
2019-03-31T21:30:07.811Z,5.53
2019-03-31T21:32:36.322Z,5.53
2019-03-31T21:35:07.688Z,5.51
2019-03-31T21:37:36.363Z,5.47
2019-03-31T21:40:07.513Z,5.45
2019-03-31T21:42:37.035Z,5.43
2019-03-31T21:45:07.234Z,5.38
2019-03-31T21:47:35.646Z,5.34
2019-03-31T21:50:06.287Z,5.29
2019-03-31T21:52:34.742Z,5.25
2019-03-31T21:55:04.355Z,5.18
2019-03-31T21:57:32.892Z,5.21
2019-03-31T22:00:01.340Z,5.16
2019-03-31T22:02:29.758Z,5.18
2019-03-31T22:04:58.197Z,5.18
2019-03-31T22:07:26.631Z,5.19
2019-03-31T22:09:55.049Z,5.21
2019-03-31T22:12:23.503Z,5.10
2019-03-31T22:14:51.943Z,5.09
2019-03-31T22:17:20.780Z,5.05
2019-03-31T22:19:49.218Z,5.06
2019-03-31T22:22:17.821Z,5.01
2019-03-31T22:24:46.579Z,4.96
2019-03-31T22:27:15.054Z,4.97
2019-03-31T22:29:44.036Z,4.85
2019-03-31T22:32:13.223Z,4.88
2019-03-31T22:34:43.926Z,4.91
2019-03-31T22:37:13.489Z,4.88
2019-03-31T22:39:42.259Z,4.87
2019-03-31T22:42:10.940Z,4.73
2019-03-31T22:44:39.685Z,4.69
2019-03-31T22:47:08.240Z,4.64
2019-03-31T22:49:37.082Z,4.54
2019-03-31T22:52:06.110Z,4.50
2019-03-31T22:54:35.095Z,4.58
2019-03-31T22:57:03.556Z,4.53
2019-03-31T22:59:32.304Z,4.56
2019-03-31T23:02:00.841Z,4.50
2019-03-31T23:04:29.584Z,4.46
2019-03-31T23:06:59.818Z,4.36
2019-03-31T23:09:29.869Z,4.32
2019-03-31T23:11:58.920Z,4.30
2019-03-31T23:14:27.362Z,4.38
2019-03-31T23:16:56.985Z,4.33
2019-03-31T23:19:26.047Z,4.28
2019-03-31T23:21:54.502Z,4.18
2019-03-31T23:24:23.619Z,4.18
2019-03-31T23:26:52.746Z,4.16
2019-03-31T23:29:21.255Z,4.05
2019-03-31T23:31:49.681Z,3.97
2019-03-31T23:34:18.464Z,3.97
2019-03-31T23:36:47.319Z,3.90
2019-03-31T23:39:15.804Z,3.89
2019-03-31T23:41:44.236Z,3.88
2019-03-31T23:44:13.250Z,3.83
2019-03-31T23:46:41.866Z,3.83
2019-03-31T23:49:10.567Z,3.74
2019-03-31T23:51:39.622Z,3.73
2019-03-31T23:54:08.767Z,3.68
2019-03-31T23:56:37.241Z,3.58
2019-03-31T23:59:05.753Z,3.69
